Time;durP1;ratioP1;P1;durP2;ratioP2;P2;SDS_P1;SDS_P2;PMS_P1;PMS_P2;Temp;Humidity;BMP_temperature;BMP_pressure;BME280_temperature;BME280_humidity;BME280_pressure;Samples;Min_cycle;Max_cycle;Signal;HPM_P1;HPM_P2
2023/05/15 00:02:22;;;;;;;31.33;17.05;;;;;;;12.61;100.00;101503.00;4897084;29;20178;-86
2023/05/15 00:04:48;;;;;;;30.53;16.87;;;;;;;12.57;100.00;101509.97;4914598;29;20088;-86
2023/05/15 00:07:13;;;;;;;31.03;17.50;;;;;;;12.54;100.00;101504.00;4912644;29;20569;-86
2023/05/15 00:09:38;;;;;;;32.78;18.30;;;;;;;12.41;100.00;101489.56;4913503;29;20387;-86
2023/05/15 00:12:04;;;;;;;33.83;18.13;;;;;;;12.48;100.00;101498.94;4914932;29;20123;-86
2023/05/15 00:14:29;;;;;;;32.83;17.98;;;;;;;12.48;100.00;101502.41;4900157;29;20294;-87
2023/05/15 00:16:55;;;;;;;33.65;18.38;;;;;;;12.41;100.00;101481.75;4913705;29;20027;-86
2023/05/15 00:19:21;;;;;;;37.72;19.30;;;;;;;12.43;100.00;101493.81;4898469;29;20051;-86
2023/05/15 00:21:46;;;;;;;35.20;18.58;;;;;;;12.41;100.00;101489.56;4913148;29;20054;-86
2023/05/15 00:24:11;;;;;;;38.85;18.65;;;;;;;12.35;100.00;101480.09;4913887;29;20047;-86
2023/05/15 00:26:37;;;;;;;37.40;19.48;;;;;;;12.28;100.00;101471.59;4913976;29;20050;-86
2023/05/15 00:29:02;;;;;;;34.33;19.23;;;;;;;12.32;100.00;101482.78;4913847;29;20040;-86
2023/05/15 00:31:32;;;;;;;34.58;18.73;;;;;;;12.27;100.00;101474.25;4914105;29;20040;-86
2023/05/15 00:33:57;;;;;;;35.40;19.27;;;;;;;12.23;100.00;101475.16;4913161;29;20504;-86
2023/05/15 00:36:24;;;;;;;35.80;19.15;;;;;;;12.24;100.00;101477.75;4914992;29;20115;-86
2023/05/15 00:38:50;;;;;;;34.45;18.50;;;;;;;12.18;100.00;101477.00;4912462;29;20170;-86
2023/05/15 00:41:16;;;;;;;36.50;18.52;;;;;;;12.15;100.00;101490.06;4913931;29;20171;-86
2023/05/15 00:43:42;;;;;;;36.80;19.15;;;;;;;12.12;100.00;101478.00;4914040;29;20140;-86
2023/05/15 00:46:08;;;;;;;33.50;18.35;;;;;;;12.10;100.00;101479.75;4913229;29;20135;-86
2023/05/15 00:48:34;;;;;;;34.92;18.45;;;;;;;12.07;100.00;101477.25;4913447;29;20043;-86
2023/05/15 00:50:59;;;;;;;36.10;19.63;;;;;;;12.02;100.00;101467.78;4913823;29;20679;-86
2023/05/15 00:53:28;;;;;;;35.78;18.85;;;;;;;11.97;100.00;101473.09;4911971;29;20070;-86
2023/05/15 00:55:56;;;;;;;34.95;18.55;;;;;;;11.97;100.00;101474.84;4912192;29;20604;-86
2023/05/15 00:58:22;;;;;;;34.65;19.40;;;;;;;11.94;100.00;101473.13;4913267;29;20067;-86
2023/05/15 01:00:49;;;;;;;35.92;19.05;;;;;;;11.88;100.00;101473.25;4890896;29;20059;-86
2023/05/15 01:03:15;;;;;;;35.50;18.60;;;;;;;11.85;100.00;101463.81;4915152;29;20544;-86
2023/05/15 01:05:40;;;;;;;32.20;17.88;;;;;;;11.84;100.00;101469.03;4893988;29;20138;-87
2023/05/15 01:08:15;;;;;;;35.10;18.90;;;;;;;11.84;100.00;101469.03;4913060;29;20051;-86
2023/05/15 01:10:42;;;;;;;36.92;18.95;;;;;;;11.77;100.00;101457.88;4912130;29;20048;-86
2023/05/15 01:13:08;;;;;;;40.80;19.63;;;;;;;11.76;100.00;101465.72;4913711;29;20036;-86
2023/05/15 01:15:34;;;;;;;39.20;19.23;;;;;;;11.70;100.00;101458.84;4913030;29;20520;-86
2023/05/15 01:18:00;;;;;;;38.75;20.30;;;;;;;11.65;100.00;101459.84;4913759;29;20393;-86
2023/05/15 01:20:26;;;;;;;36.65;19.83;;;;;;;11.64;100.00;101469.34;4896485;29;20042;-86
2023/05/15 01:23:08;;;;;;;37.97;20.40;;;;;;;11.66;100.00;101458.94;4914778;29;20490;-86
2023/05/15 01:25:53;;;;;;;42.42;20.23;;;;;;;11.61;100.00;101463.34;4910914;29;20040;-86
2023/05/15 01:28:29;;;;;;;39.05;19.90;;;;;;;11.58;100.00;101459.09;4910205;29;20146;-86
2023/05/15 01:30:55;;;;;;;39.05;20.65;;;;;;;11.56;100.00;101460.84;4913960;29;20400;-86
2023/05/15 01:33:27;;;;;;;39.08;20.55;;;;;;;11.56;100.00;101457.38;4910811;29;20648;-86
2023/05/15 01:36:07;;;;;;;45.83;22.20;;;;;;;11.53;100.00;101460.91;4912124;29;20816;-86
2023/05/15 01:38:37;;;;;;;42.63;21.25;;;;;;;11.50;100.00;101453.16;4895804;29;20063;-86
2023/05/15 01:41:45;;;;;;;40.72;21.58;;;;;;;11.49;100.00;101452.31;4913229;29;20042;-86
2023/05/15 01:44:18;;;;;;;42.72;21.23;;;;;;;11.41;100.00;101448.97;4891576;29;20102;-86
2023/05/15 01:46:48;;;;;;;40.97;21.92;;;;;;;11.45;100.00;101455.84;4912471;29;20086;-86
2023/05/15 01:49:17;;;;;;;44.35;22.77;;;;;;;11.41;100.00;101440.34;4913797;29;20040;-85
2023/05/15 01:51:44;;;;;;;44.15;22.75;;;;;;;11.40;100.00;101454.19;4911866;29;20521;-85
2023/05/15 01:54:12;;;;;;;44.15;23.50;;;;;;;11.33;100.00;101444.81;4912820;29;20127;-86
2023/05/15 01:56:39;;;;;;;46.95;23.33;;;;;;;11.33;100.00;101442.19;4909738;29;20036;-86
2023/05/15 01:59:07;;;;;;;46.35;23.17;;;;;;;11.26;100.00;101441.44;4911948;29;20087;-86
2023/05/15 02:01:33;;;;;;;41.78;22.23;;;;;;;11.21;100.00;101437.22;4912924;29;20028;-86
2023/05/15 02:04:00;;;;;;;47.45;24.02;;;;;;;11.18;100.00;101445.09;4912533;29;20048;-86
2023/05/15 02:06:28;;;;;;;46.53;22.95;;;;;;;11.15;100.00;101445.13;4911753;29;21955;-86
2023/05/15 02:08:55;;;;;;;46.78;23.02;;;;;;;11.04;100.00;101435.78;4912265;29;20099;-86
2023/05/15 02:11:21;;;;;;;49.53;24.08;;;;;;;11.04;100.00;101443.56;4912957;29;20500;-86
2023/05/15 02:13:47;;;;;;;43.45;22.75;;;;;;;10.98;100.00;101451.44;4912504;29;20048;-86
2023/05/15 02:16:13;;;;;;;46.13;23.48;;;;;;;10.96;100.00;101452.34;4912444;29;20127;-86
2023/05/15 02:18:38;;;;;;;45.47;22.17;;;;;;;10.94;100.00;101448.91;4912240;29;20042;-86
2023/05/15 02:21:03;;;;;;;46.10;23.65;;;;;;;10.83;100.00;101436.13;4913979;29;20088;-86
2023/05/15 02:23:29;;;;;;;47.70;24.10;;;;;;;10.85;100.00;101439.53;4915363;29;20047;-86
2023/05/15 02:25:57;;;;;;;46.20;24.05;;;;;;;10.81;100.00;101442.19;4915581;29;20143;-86
2023/05/15 02:28:29;;;;;;;49.00;23.98;;;;;;;10.78;100.00;101427.53;4916851;29;20032;-86
2023/05/15 02:31:00;;;;;;;46.55;23.65;;;;;;;10.84;100.00;101444.75;4916028;29;20066;-86
2023/05/15 02:33:34;;;;;;;47.75;23.60;;;;;;;10.81;100.00;101447.38;4915234;29;20879;-86
2023/05/15 02:36:08;;;;;;;49.45;23.27;;;;;;;10.80;100.00;101443.06;4916107;29;20032;-86
2023/05/15 02:38:52;;;;;;;50.03;24.48;;;;;;;10.77;100.00;101443.13;4915173;29;20055;-86
2023/05/15 02:41:18;;;;;;;50.65;24.45;;;;;;;10.78;100.00;101444.84;4916676;29;20044;-86
2023/05/15 02:43:47;;;;;;;48.25;23.92;;;;;;;10.75;100.00;101443.16;4914696;29;20072;-86
2023/05/15 02:46:14;;;;;;;48.97;23.73;;;;;;;10.75;100.00;101450.94;4908495;29;20067;-86
2023/05/15 02:48:41;;;;;;;51.35;24.63;;;;;;;10.75;100.00;101450.94;4901659;29;20079;-86
2023/05/15 02:51:07;;;;;;;52.25;24.65;;;;;;;10.73;100.00;101452.69;4915592;29;20515;-86
2023/05/15 02:53:37;;;;;;;53.38;24.77;;;;;;;10.70;100.00;101450.16;4914751;29;20118;-86
2023/05/15 02:56:03;;;;;;;49.92;24.58;;;;;;;10.69;100.00;101445.84;4915289;29;20036;-86
2023/05/15 02:58:28;;;;;;;48.50;24.75;;;;;;;10.69;100.00;101443.25;4916089;29;20040;-86
2023/05/15 03:00:54;;;;;;;52.15;23.70;;;;;;;10.64;100.00;101447.66;4915588;29;20904;-86
2023/05/15 03:03:19;;;;;;;50.00;24.13;;;;;;;10.64;100.00;101448.47;4915048;29;20044;-86
2023/05/15 03:05:44;;;;;;;47.75;24.00;;;;;;;10.64;100.00;101443.28;4911644;29;20048;-86
2023/05/15 03:08:10;;;;;;;51.45;24.80;;;;;;;10.65;100.00;101444.16;4914354;29;20054;-86
2023/05/15 03:10:35;;;;;;;51.47;24.20;;;;;;;10.61;100.00;101445.09;4915772;29;20039;-87
2023/05/15 03:13:01;;;;;;;52.25;25.23;;;;;;;10.64;100.00;101440.69;4915455;29;20303;-86
2023/05/15 03:15:27;;;;;;;54.63;25.55;;;;;;;10.60;100.00;101444.22;4899241;29;20044;-86
2023/05/15 03:17:52;;;;;;;55.67;25.33;;;;;;;10.55;100.00;101437.41;4914727;29;20048;-86
2023/05/15 03:20:17;;;;;;;54.40;25.20;;;;;;;10.59;100.00;101445.09;4915886;29;20580;-86
2023/05/15 03:22:43;;;;;;;53.80;24.98;;;;;;;10.56;100.00;101444.31;4915192;29;20047;-86
2023/05/15 03:25:10;;;;;;;54.55;25.13;;;;;;;10.59;100.00;101452.00;4898941;29;20051;-86
2023/05/15 03:27:35;;;;;;;55.00;25.30;;;;;;;10.53;100.00;101441.72;4914663;29;20044;-86
2023/05/15 03:30:01;;;;;;;57.10;26.35;;;;;;;10.47;100.00;101423.69;4898500;29;20051;-86
2023/05/15 03:32:26;;;;;;;54.70;25.27;;;;;;;10.53;100.00;101431.38;4900457;29;20047;-86
2023/05/15 03:34:51;;;;;;;60.28;27.35;;;;;;;10.54;100.00;101436.53;4913223;29;20844;-86
2023/05/15 03:37:17;;;;;;;56.95;26.50;;;;;;;10.50;100.00;101431.44;4898530;29;20231;-86
2023/05/15 03:39:42;;;;;;;60.10;27.15;;;;;;;10.46;100.00;101429.75;4915467;29;20039;-86
2023/05/15 03:42:07;;;;;;;61.20;27.93;;;;;;;10.47;100.00;101434.03;4912825;29;20051;-86
2023/05/15 03:44:33;;;;;;;56.22;26.83;;;;;;;10.44;100.00;101424.56;4907587;29;20292;-86
2023/05/15 03:46:58;;;;;;;58.53;26.60;;;;;;;10.44;100.00;101426.34;4915389;29;20134;-86
2023/05/15 03:49:24;;;;;;;64.32;27.65;;;;;;;10.41;100.00;101429.81;4914201;29;20684;-87
2023/05/15 03:51:49;;;;;;;59.03;26.92;;;;;;;10.35;100.00;101427.31;4915823;29;20453;-87
2023/05/15 03:54:14;;;;;;;64.80;27.83;;;;;;;10.32;100.00;101429.91;4898536;29;20092;-87
2023/05/15 03:56:40;;;;;;;64.45;27.65;;;;;;;10.32;100.00;101434.25;4911969;29;21397;-87
2023/05/15 03:59:05;;;;;;;66.43;27.80;;;;;;;10.32;100.00;101431.66;4913817;29;20047;-87
2023/05/15 04:01:30;;;;;;;68.65;28.70;;;;;;;10.28;100.00;101423.94;4914129;29;20127;-87
2023/05/15 04:03:56;;;;;;;68.60;28.65;;;;;;;10.25;100.00;101420.50;4898313;29;20800;-86
2023/05/15 04:06:21;;;;;;;65.38;27.33;;;;;;;10.24;100.00;101424.84;4914741;29;20044;-87
2023/05/15 04:08:48;;;;;;;67.85;27.95;;;;;;;10.23;100.00;101433.50;4914513;29;20047;-87
2023/05/15 04:11:13;;;;;;;70.03;29.27;;;;;;;10.22;100.00;101426.63;4914144;29;20040;-87
2023/05/15 04:13:38;;;;;;;63.20;26.45;;;;;;;10.22;100.00;101426.63;4912343;29;20760;-87
2023/05/15 04:16:04;;;;;;;62.17;27.20;;;;;;;10.27;100.00;101435.19;4898849;29;20039;-87
2023/05/15 04:18:29;;;;;;;67.00;27.55;;;;;;;10.20;100.00;101418.00;4914136;29;20308;-87
2023/05/15 04:20:54;;;;;;;67.77;27.60;;;;;;;10.19;100.00;101418.00;4914754;29;20060;-87
2023/05/15 04:23:20;;;;;;;68.38;28.38;;;;;;;10.24;100.00;101422.25;4912950;29;20291;-86
2023/05/15 04:25:45;;;;;;;70.15;28.15;;;;;;;10.24;100.00;101417.06;4914153;29;20032;-86
2023/05/15 04:28:14;;;;;;;68.20;27.95;;;;;;;10.26;100.00;101420.50;4911410;29;20051;-86
2023/05/15 04:30:40;;;;;;;66.40;27.23;;;;;;;10.25;100.00;101417.94;4907829;29;20501;-86
2023/05/15 04:33:05;;;;;;;65.75;27.98;;;;;;;10.29;100.00;101432.56;4913036;29;20055;-86
2023/05/15 04:35:31;;;;;;;69.68;29.00;;;;;;;10.32;100.00;101432.50;4911225;29;20032;-86
2023/05/15 04:37:57;;;;;;;67.70;28.20;;;;;;;10.36;100.00;101438.53;4912797;29;20050;-87
2023/05/15 04:40:22;;;;;;;74.30;28.85;;;;;;;10.38;100.00;101437.63;4898336;29;20040;-87
2023/05/15 04:42:47;;;;;;;70.53;27.98;;;;;;;10.42;100.00;101444.50;4912425;29;20178;-86
2023/05/15 04:45:13;;;;;;;69.25;27.70;;;;;;;10.41;100.00;101444.50;4913120;29;20055;-87
2023/05/15 04:47:38;;;;;;;68.20;28.30;;;;;;;10.44;100.00;101447.91;4913859;29;20272;-86
2023/05/15 04:50:05;;;;;;;73.50;28.23;;;;;;;10.50;100.00;101459.94;4912336;29;20096;-86
2023/05/15 04:52:31;;;;;;;67.18;26.80;;;;;;;10.57;100.00;101457.25;4897883;29;20044;-87
2023/05/15 04:54:56;;;;;;;65.60;26.90;;;;;;;10.57;100.00;101470.22;4912930;29;20115;-86
2023/05/15 04:57:22;;;;;;;64.00;27.48;;;;;;;10.61;100.00;101471.00;4897734;29;20132;-86
2023/05/15 04:59:47;;;;;;;61.10;26.60;;;;;;;10.62;100.00;101475.31;4913743;29;20123;-86
2023/05/15 05:02:13;;;;;;;61.83;25.50;;;;;;;10.64;100.00;101468.38;4913480;29;20791;-86
2023/05/15 05:04:41;;;;;;;62.13;26.00;;;;;;;10.64;100.00;101464.03;4909430;29;21528;-86
2023/05/15 05:07:07;;;;;;;62.35;25.42;;;;;;;10.75;100.00;101469.09;4912965;29;20296;-86
2023/05/15 05:09:33;;;;;;;59.65;25.92;;;;;;;10.85;100.00;101465.47;4897136;29;20038;-86
2023/05/15 05:12:00;;;;;;;61.28;26.13;;;;;;;11.00;100.00;101466.97;4913359;29;20493;-86
2023/05/15 05:14:25;;;;;;;61.40;26.38;;;;;;;11.11;100.00;101462.50;4909668;29;20079;-86
2023/05/15 05:16:51;;;;;;;58.47;25.40;;;;;;;11.20;100.00;101464.91;4913743;29;20071;-86
2023/05/15 05:19:16;;;;;;;53.33;23.48;;;;;;;11.21;100.00;101460.59;4911539;29;20075;-86
2023/05/15 05:21:41;;;;;;;52.33;24.17;;;;;;;11.26;100.00;101467.41;4896837;29;20043;-86
2023/05/15 05:24:07;;;;;;;55.22;24.00;;;;;;;11.33;100.00;101473.34;4909716;29;20046;-86
2023/05/15 05:26:32;;;;;;;54.30;24.67;;;;;;;11.52;100.00;101476.50;4913977;29;20991;-86
2023/05/15 05:28:57;;;;;;;49.42;23.60;;;;;;;11.68;100.00;101463.22;4913028;29;20066;-86
2023/05/15 05:31:23;;;;;;;53.08;24.95;;;;;;;11.87;100.00;101475.00;4912470;29;20036;-86
2023/05/15 05:33:48;;;;;;;52.00;24.45;;;;;;;12.00;100.00;101485.19;4911398;29;20066;-86
2023/05/15 05:36:14;;;;;;;52.55;24.80;;;;;;;12.02;100.00;101481.66;4913911;29;20123;-86
2023/05/15 05:38:39;;;;;;;49.70;24.33;;;;;;;11.93;100.00;101483.59;4896735;29;20103;-86
2023/05/15 05:41:05;;;;;;;49.25;23.77;;;;;;;11.92;100.00;101493.13;4907052;29;20039;-87
2023/05/15 05:43:30;;;;;;;48.72;24.23;;;;;;;11.84;100.00;101485.47;4910235;29;20091;-86
2023/05/15 05:45:55;;;;;;;49.63;24.10;;;;;;;12.07;100.00;101485.03;4904056;29;20036;-85
2023/05/15 05:48:21;;;;;;;47.65;23.55;;;;;;;12.32;100.00;101481.94;4905647;29;20032;-86
2023/05/15 05:50:46;;;;;;;48.55;23.83;;;;;;;12.70;100.00;101487.16;4891057;29;20036;-86
2023/05/15 05:53:11;;;;;;;47.67;23.60;;;;;;;12.86;100.00;101479.88;4891168;29;20036;-86
2023/05/15 05:55:37;;;;;;;45.10;23.42;;;;;;;13.05;100.00;101486.34;4908026;29;20107;-86
2023/05/15 05:58:02;;;;;;;42.65;23.08;;;;;;;13.30;100.00;101473.66;4913723;29;20083;-86
2023/05/15 06:00:28;;;;;;;40.22;22.33;;;;;;;13.53;100.00;101489.53;4909713;29;20055;-86
2023/05/15 06:02:56;;;;;;;43.35;23.52;;;;;;;13.58;95.92;101490.28;4909369;29;20042;-86
2023/05/15 06:05:24;;;;;;;41.72;22.90;;;;;;;13.46;98.41;101480.19;4908435;29;20032;-86
2023/05/15 06:07:51;;;;;;;43.55;22.92;;;;;;;13.31;98.67;101486.63;4908622;29;20461;-86
2023/05/15 06:10:17;;;;;;;42.63;22.92;;;;;;;13.13;98.12;101492.28;4912505;29;20037;-86
2023/05/15 06:12:42;;;;;;;44.97;23.30;;;;;;;13.03;100.00;101485.56;4912107;29;20040;-86
2023/05/15 06:15:08;;;;;;;38.60;21.85;;;;;;;12.94;99.11;101481.41;4913154;29;20063;-86
2023/05/15 06:17:33;;;;;;;42.58;21.98;;;;;;;12.91;99.01;101489.28;4896127;29;20068;-87
2023/05/15 06:19:58;;;;;;;40.13;22.17;;;;;;;12.78;99.98;101487.00;4900328;29;20062;-86
2023/05/15 06:22:24;;;;;;;38.63;21.70;;;;;;;12.64;100.00;101492.50;4914950;29;20039;-86
2023/05/15 06:24:49;;;;;;;40.78;21.40;;;;;;;12.63;100.00;101496.84;4914757;29;20119;-86
2023/05/15 06:27:14;;;;;;;38.72;21.00;;;;;;;12.60;100.00;101494.31;4900216;29;20040;-86
2023/05/15 06:29:40;;;;;;;38.58;20.88;;;;;;;12.85;100.00;101493.78;4898012;29;20028;-87
2023/05/15 06:32:05;;;;;;;38.83;21.40;;;;;;;13.03;100.00;101494.19;4910634;29;20050;-87
2023/05/15 06:34:31;;;;;;;36.65;20.65;;;;;;;13.09;96.66;101503.63;4914093;29;20075;-87
2023/05/15 06:36:56;;;;;;;36.90;20.90;;;;;;;13.03;99.21;101502.00;4915649;29;20051;-88
2023/05/15 06:39:21;;;;;;;39.28;21.02;;;;;;;13.05;96.73;101501.97;4898867;29;20135;-88
2023/05/15 06:41:47;;;;;;;40.40;19.80;;;;;;;13.13;97.17;101492.28;4915758;29;20051;-87
2023/05/15 06:44:12;;;;;;;36.67;19.88;;;;;;;13.36;99.73;101482.19;4898699;29;20553;-87
2023/05/15 06:46:37;;;;;;;41.35;20.35;;;;;;;13.62;97.32;101489.31;4915456;29;20044;-87
2023/05/15 06:49:03;;;;;;;37.37;20.63;;;;;;;13.92;97.73;101486.81;4916402;29;20123;-85
2023/05/15 06:51:28;;;;;;;36.53;19.48;;;;;;;14.29;93.49;101494.44;4912912;29;20740;-86
2023/05/15 06:53:53;;;;;;;37.72;19.95;;;;;;;14.65;88.44;101482.97;4906779;29;20047;-86
2023/05/15 06:56:19;;;;;;;35.28;20.38;;;;;;;14.98;92.10;101478.47;4914765;29;20040;-85
2023/05/15 06:58:44;;;;;;;36.65;19.83;;;;;;;15.21;87.55;101481.19;4899185;29;20044;-85
2023/05/15 07:01:10;;;;;;;37.08;20.60;;;;;;;15.15;86.54;101488.38;4916184;29;20047;-87
2023/05/15 07:03:35;;;;;;;36.10;20.33;;;;;;;15.31;88.54;101479.13;4914949;29;20043;-87
2023/05/15 07:06:00;;;;;;;37.08;20.83;;;;;;;15.62;84.78;101484.22;4914589;29;20032;-87
2023/05/15 07:08:26;;;;;;;36.58;20.83;;;;;;;16.25;86.39;101477.56;4912128;29;20048;-87
2023/05/15 07:10:52;;;;;;;34.67;20.50;;;;;;;17.09;78.59;101478.69;4913338;29;20060;-87
2023/05/15 07:13:20;;;;;;;38.63;21.60;;;;;;;18.12;74.34;101481.28;4898902;29;20028;-87
2023/05/15 07:15:45;;;;;;;35.53;21.13;;;;;;;18.33;70.23;101474.22;4901124;29;20073;-88
2023/05/15 07:18:11;;;;;;;35.20;21.05;;;;;;;18.22;71.70;101472.06;4898937;29;20142;-86
2023/05/15 07:20:48;;;;;;;37.70;21.67;;;;;;;18.77;74.63;101473.00;4912584;29;20040;-86
2023/05/15 07:23:31;;;;;;;33.78;19.88;;;;;;;19.54;69.19;101473.63;4915069;29;20032;-88
2023/05/15 07:25:57;;;;;;;36.42;21.25;;;;;;;20.19;67.88;101474.59;4916081;29;20040;-87
2023/05/15 07:28:25;;;;;;;32.75;20.42;;;;;;;20.26;64.40;101462.81;4899862;29;20432;-87
2023/05/15 07:30:53;;;;;;;33.78;20.55;;;;;;;20.04;61.17;101465.72;4915717;29;20035;-87
2023/05/15 07:33:21;;;;;;;34.17;21.02;;;;;;;19.97;61.25;101476.66;4913378;29;20043;-87
2023/05/15 07:35:50;;;;;;;34.58;22.00;;;;;;;20.02;64.63;101457.06;4914673;29;20126;-87
2023/05/15 07:38:17;;;;;;;33.67;21.95;;;;;;;19.99;66.11;101454.56;4913103;29;20048;-87
2023/05/15 07:40:45;;;;;;;33.90;22.13;;;;;;;20.03;65.12;101455.28;4907769;29;20135;-87
2023/05/15 07:43:12;;;;;;;32.38;21.67;;;;;;;20.53;62.47;101449.94;4912097;29;20094;-87
2023/05/15 07:45:43;;;;;;;30.95;20.58;;;;;;;21.57;62.40;101460.63;4908792;29;20056;-87
2023/05/15 07:48:19;;;;;;;31.50;20.50;;;;;;;22.11;59.41;101451.16;4908403;29;20544;-87
2023/05/15 07:50:51;;;;;;;29.33;20.75;;;;;;;22.24;54.87;101444.19;4911781;29;20075;-87
2023/05/15 07:53:19;;;;;;;30.27;20.67;;;;;;;22.68;56.73;101470.44;4913016;29;20043;-87
2023/05/15 07:55:45;;;;;;;32.15;21.48;;;;;;;23.01;56.83;101453.34;4915920;29;20044;-87
2023/05/15 07:58:10;;;;;;;34.03;21.10;;;;;;;23.06;54.52;101445.97;4910886;29;20402;-87
2023/05/15 08:00:37;;;;;;;28.77;21.33;;;;;;;22.99;57.47;101434.97;4913776;29;20541;-87
2023/05/15 08:03:02;;;;;;;31.85;21.45;;;;;;;22.99;54.84;101428.81;4898921;29;21056;-87
2023/05/15 08:05:28;;;;;;;28.65;21.50;;;;;;;22.78;53.86;101444.28;4901996;29;20087;-87
2023/05/15 08:07:54;;;;;;;30.15;22.05;;;;;;;22.45;50.14;101445.47;4900935;29;20035;-87
2023/05/15 08:10:20;;;;;;;34.33;22.67;;;;;;;22.04;50.33;101439.31;4915616;29;20515;-87
2023/05/15 08:12:47;;;;;;;31.50;23.48;;;;;;;21.89;56.45;101446.34;4915417;29;20589;-87
2023/05/15 08:15:20;;;;;;;33.90;22.80;;;;;;;21.77;59.29;101439.16;4899117;29;20497;-87
2023/05/15 08:17:46;;;;;;;32.80;23.60;;;;;;;21.84;59.33;101447.53;4916154;29;20050;-86
2023/05/15 08:20:15;;;;;;;33.97;24.50;;;;;;;21.69;56.77;101430.88;4898698;29;20043;-86
2023/05/15 08:22:43;;;;;;;30.55;22.52;;;;;;;21.63;57.05;101421.53;4915766;29;20410;-87
2023/05/15 08:25:14;;;;;;;29.25;21.17;;;;;;;21.81;55.80;101432.78;4919190;29;20090;-87
2023/05/15 08:27:39;;;;;;;28.83;21.10;;;;;;;21.95;57.07;101431.91;4918169;29;20066;-87
2023/05/15 08:30:11;;;;;;;29.38;21.63;;;;;;;21.96;56.41;101445.06;4916722;29;20059;-87
2023/05/15 08:32:40;;;;;;;32.17;22.52;;;;;;;21.98;50.32;101451.09;4899047;29;20054;-87
2023/05/15 08:35:09;;;;;;;28.70;21.27;;;;;;;22.05;54.45;101438.34;4915472;29;20056;-87
2023/05/15 08:37:37;;;;;;;29.80;20.92;;;;;;;22.78;56.02;101445.16;4917951;29;20051;-87
2023/05/15 08:40:16;;;;;;;26.75;20.65;;;;;;;23.18;56.05;101453.94;4914959;29;20047;-87
2023/05/15 08:46:01;;;;;;;28.42;21.40;;;;;;;22.93;53.00;101440.63;4912542;29;20031;-88
2023/05/15 08:48:28;;;;;;;30.20;21.55;;;;;;;22.89;49.09;101438.28;4915905;29;20126;-88
2023/05/15 08:50:56;;;;;;;26.58;19.83;;;;;;;22.76;51.72;101427.69;4900855;29;20068;-86
2023/05/15 08:53:23;;;;;;;26.80;19.15;;;;;;;22.43;51.11;101426.25;4910066;29;20048;-87
2023/05/15 08:55:49;;;;;;;26.10;17.73;;;;;;;22.00;52.23;101441.28;4901038;29;20114;-87
2023/05/15 08:58:20;;;;;;;24.55;18.08;;;;;;;21.43;54.96;101426.28;4909346;29;20138;-87
2023/05/15 09:00:46;;;;;;;23.65;18.52;;;;;;;21.11;54.67;101431.66;4914922;29;20035;-87
2023/05/15 09:03:18;;;;;;;25.85;18.77;;;;;;;20.83;58.11;101437.66;4915743;29;20043;-87
2023/05/15 09:05:48;;;;;;;28.52;19.95;;;;;;;20.36;58.45;101437.69;4914156;29;20127;-87
2023/05/15 09:08:16;;;;;;;26.05;19.60;;;;;;;19.89;58.73;101426.22;4916235;29;20082;-87
2023/05/15 09:10:44;;;;;;;25.98;19.73;;;;;;;19.72;61.14;101442.88;4898311;29;20040;-87
2023/05/15 09:13:11;;;;;;;27.77;19.42;;;;;;;19.50;61.69;101435.25;4915462;29;20112;-86
2023/05/15 09:15:36;;;;;;;25.35;19.08;;;;;;;19.45;59.45;101449.53;4915097;29;20038;-87
2023/05/15 09:18:02;;;;;;;25.52;18.98;;;;;;;19.37;62.30;101438.56;4915288;29;20036;-87
2023/05/15 09:20:35;;;;;;;26.23;18.20;;;;;;;19.34;62.43;101435.16;4912933;29;20140;-87
2023/05/15 09:23:03;;;;;;;29.50;19.20;;;;;;;19.46;62.10;101443.34;4915821;29;21129;-87
2023/05/15 09:25:41;;;;;;;28.85;19.30;;;;;;;19.56;64.40;101453.34;4915946;29;20043;-87
2023/05/15 09:28:09;;;;;;;27.05;17.92;;;;;;;19.66;63.25;101446.66;4915392;29;20632;-87
2023/05/15 09:30:40;;;;;;;27.55;18.85;;;;;;;19.54;62.53;101446.47;4914636;29;20126;-87
2023/05/15 09:33:06;;;;;;;26.98;18.15;;;;;;;19.54;62.87;101447.31;4916862;29;20107;-86
2023/05/15 09:35:31;;;;;;;24.75;17.30;;;;;;;19.48;60.20;101452.03;4914212;29;20777;-86
2023/05/15 09:38:00;;;;;;;22.90;16.13;;;;;;;19.56;63.24;101449.88;4915240;29;20036;-86
2023/05/15 09:40:30;;;;;;;25.55;16.65;;;;;;;19.41;62.55;101446.22;4897805;29;20323;-86
2023/05/15 09:42:56;;;;;;;23.45;17.30;;;;;;;19.41;62.83;101446.22;4915225;29;20040;-86
2023/05/15 09:45:28;;;;;;;26.52;18.10;;;;;;;19.33;64.18;101451.00;4912090;29;20036;-86
2023/05/15 09:47:54;;;;;;;29.48;19.63;;;;;;;19.30;60.67;101459.06;4915236;29;20429;-86
2023/05/15 09:50:30;;;;;;;27.27;19.33;;;;;;;19.25;62.27;101450.53;4906774;29;20032;-85
2023/05/15 09:52:58;;;;;;;26.10;18.05;;;;;;;19.28;68.33;101447.75;4915241;29;20036;-86
2023/05/15 09:55:24;;;;;;;31.13;19.88;;;;;;;19.31;66.89;101450.25;4915509;29;20043;-86
2023/05/15 09:58:05;;;;;;;29.05;19.23;;;;;;;19.31;65.35;101448.44;4912964;29;20044;-86
2023/05/15 10:00:31;;;;;;;27.50;18.00;;;;;;;19.29;64.54;101446.84;4914739;29;20043;-86
2023/05/15 10:02:57;;;;;;;28.80;19.35;;;;;;;19.14;63.89;101456.31;4914579;29;21592;-86
2023/05/15 10:05:26;;;;;;;28.35;18.48;;;;;;;19.05;65.09;101453.28;4913120;29;20291;-86
2023/05/15 10:07:54;;;;;;;26.50;17.67;;;;;;;18.99;65.64;101451.81;4913771;29;20048;-86
2023/05/15 10:10:20;;;;;;;28.75;17.98;;;;;;;18.94;65.44;101461.72;4914791;29;20036;-86
2023/05/15 10:12:46;;;;;;;29.67;19.05;;;;;;;18.90;64.82;101465.44;4914071;29;20420;-86
2023/05/15 10:15:13;;;;;;;28.60;18.77;;;;;;;18.86;67.14;101462.06;4916073;29;20031;-86
2023/05/15 10:17:41;;;;;;;30.30;18.88;;;;;;;18.79;66.77;101460.66;4913030;29;20096;-86
2023/05/15 10:20:07;;;;;;;29.98;18.95;;;;;;;18.71;66.38;101461.94;4892459;29;20040;-86
2023/05/15 10:22:40;;;;;;;26.45;17.77;;;;;;;18.71;70.15;101467.19;4915296;29;20116;-86
2023/05/15 10:25:15;;;;;;;28.02;18.90;;;;;;;18.67;66.49;101481.41;4913121;29;20517;-86
2023/05/15 10:27:41;;;;;;;30.60;20.70;;;;;;;18.50;68.03;101469.03;4910655;29;20063;-86
2023/05/15 10:30:09;;;;;;;30.08;20.33;;;;;;;18.42;70.38;101463.31;4913583;29;20039;-85
2023/05/15 10:32:35;;;;;;;30.80;20.45;;;;;;;18.30;71.14;101459.44;4912104;29;20040;-86
2023/05/15 10:35:02;;;;;;;30.95;22.00;;;;;;;18.27;73.11;101470.09;4913701;29;20555;-86
2023/05/15 10:37:29;;;;;;;32.65;21.35;;;;;;;18.22;71.24;101476.50;4911212;29;20064;-86
2023/05/15 10:39:56;;;;;;;31.90;21.05;;;;;;;18.22;67.99;101469.44;4910303;29;20050;-86
2023/05/15 10:42:24;;;;;;;30.92;20.80;;;;;;;18.21;71.78;101478.25;4906979;29;20035;-86
2023/05/15 10:44:52;;;;;;;33.35;20.77;;;;;;;18.23;71.31;101475.53;4902190;29;20039;-86
2023/05/15 10:47:18;;;;;;;31.85;21.02;;;;;;;18.25;70.18;101474.56;4917779;29;20078;-86
2023/05/15 10:49:44;;;;;;;31.85;20.48;;;;;;;18.35;69.14;101461.88;4917396;29;20119;-86
2023/05/15 10:52:09;;;;;;;30.38;20.23;;;;;;;18.36;69.79;101464.41;4918637;29;20123;-86
2023/05/15 10:54:34;;;;;;;31.95;20.35;;;;;;;18.35;70.47;101456.63;4917978;29;20122;-86
2023/05/15 10:57:00;;;;;;;30.05;19.85;;;;;;;18.41;72.14;101462.44;4915993;29;20183;-86
2023/05/15 10:59:33;;;;;;;29.45;20.42;;;;;;;18.44;72.73;101459.66;4919114;29;20036;-86
2023/05/15 11:02:25;;;;;;;30.30;20.05;;;;;;;18.47;70.59;101461.31;4916706;29;20222;-86
2023/05/15 11:05:00;;;;;;;30.40;20.00;;;;;;;18.37;70.90;101460.88;4917850;29;20404;-86
2023/05/15 11:07:27;;;;;;;30.20;20.65;;;;;;;18.25;71.72;101465.84;4916672;29;20095;-86
2023/05/15 11:09:53;;;;;;;33.13;20.15;;;;;;;18.10;73.74;101462.13;4918681;29;20573;-86